sensor_id;sensor_type;location;lat;lon;timestamp;P1;durP1;ratioP1;P2;durP2;ratioP2
78430;SDS011;67727;50.236;22.452;2023-03-19T00:00:33;28.80;;;14.00;;
78430;SDS011;67727;50.236;22.452;2023-03-19T00:05:51;24.00;;;13.00;;
78430;SDS011;67727;50.236;22.452;2023-03-19T00:08:19;23.90;;;12.10;;
78430;SDS011;67727;50.236;22.452;2023-03-19T00:10:46;19.20;;;13.30;;
78430;SDS011;67727;50.236;22.452;2023-03-19T00:13:14;18.30;;;9.80;;
78430;SDS011;67727;50.236;22.452;2023-03-19T00:15:41;25.80;;;12.80;;
78430;SDS011;67727;50.236;22.452;2023-03-19T00:18:08;24.60;;;14.10;;
78430;SDS011;67727;50.236;22.452;2023-03-19T00:20:35;19.20;;;11.30;;
78430;SDS011;67727;50.236;22.452;2023-03-19T00:23:02;27.70;;;13.50;;
78430;SDS011;67727;50.236;22.452;2023-03-19T00:25:29;18.30;;;9.50;;
78430;SDS011;67727;50.236;22.452;2023-03-19T00:27:57;18.50;;;9.50;;
78430;SDS011;67727;50.236;22.452;2023-03-19T00:30:24;18.80;;;9.80;;
78430;SDS011;67727;50.236;22.452;2023-03-19T00:32:51;22.70;;;9.00;;
78430;SDS011;67727;50.236;22.452;2023-03-19T00:35:18;20.00;;;10.30;;
78430;SDS011;67727;50.236;22.452;2023-03-19T00:37:46;20.10;;;10.60;;
78430;SDS011;67727;50.236;22.452;2023-03-19T00:40:13;28.00;;;14.10;;
78430;SDS011;67727;50.236;22.452;2023-03-19T00:42:40;24.20;;;13.80;;
78430;SDS011;67727;50.236;22.452;2023-03-19T00:45:10;19.40;;;12.10;;
78430;SDS011;67727;50.236;22.452;2023-03-19T00:47:38;20.40;;;11.80;;
78430;SDS011;67727;50.236;22.452;2023-03-19T00:50:05;20.80;;;11.30;;
78430;SDS011;67727;50.236;22.452;2023-03-19T00:52:32;16.50;;;9.50;;
78430;SDS011;67727;50.236;22.452;2023-03-19T00:55:00;25.10;;;13.80;;
78430;SDS011;67727;50.236;22.452;2023-03-19T00:57:27;17.50;;;8.20;;
78430;SDS011;67727;50.236;22.452;2023-03-19T00:59:54;19.00;;;11.40;;
78430;SDS011;67727;50.236;22.452;2023-03-19T01:02:21;17.80;;;9.90;;
78430;SDS011;67727;50.236;22.452;2023-03-19T01:04:48;17.60;;;10.20;;
78430;SDS011;67727;50.236;22.452;2023-03-19T01:07:16;21.80;;;10.10;;
78430;SDS011;67727;50.236;22.452;2023-03-19T01:09:43;21.10;;;10.40;;
78430;SDS011;67727;50.236;22.452;2023-03-19T01:12:10;18.90;;;10.80;;
78430;SDS011;67727;50.236;22.452;2023-03-19T01:14:37;22.70;;;12.00;;
78430;SDS011;67727;50.236;22.452;2023-03-19T01:17:04;18.40;;;10.50;;
78430;SDS011;67727;50.236;22.452;2023-03-19T01:19:32;23.40;;;11.60;;
78430;SDS011;67727;50.236;22.452;2023-03-19T01:21:59;20.10;;;11.70;;
78430;SDS011;67727;50.236;22.452;2023-03-19T01:24:32;22.50;;;12.00;;
78430;SDS011;67727;50.236;22.452;2023-03-19T01:26:59;20.30;;;10.20;;
78430;SDS011;67727;50.236;22.452;2023-03-19T01:29:26;23.00;;;11.60;;
78430;SDS011;67727;50.236;22.452;2023-03-19T01:31:53;17.70;;;9.80;;
78430;SDS011;67727;50.236;22.452;2023-03-19T01:34:21;20.00;;;10.30;;
78430;SDS011;67727;50.236;22.452;2023-03-19T01:36:48;20.60;;;10.50;;
78430;SDS011;67727;50.236;22.452;2023-03-19T01:39:15;21.10;;;10.30;;
78430;SDS011;67727;50.236;22.452;2023-03-19T01:41:42;23.80;;;10.60;;
78430;SDS011;67727;50.236;22.452;2023-03-19T01:44:26;19.30;;;11.40;;
78430;SDS011;67727;50.236;22.452;2023-03-19T01:47:02;21.50;;;11.70;;
78430;SDS011;67727;50.236;22.452;2023-03-19T01:49:33;22.80;;;12.10;;
78430;SDS011;67727;50.236;22.452;2023-03-19T01:52:01;21.10;;;11.40;;
78430;SDS011;67727;50.236;22.452;2023-03-19T01:54:30;19.20;;;10.60;;
78430;SDS011;67727;50.236;22.452;2023-03-19T01:57:08;23.30;;;11.80;;
78430;SDS011;67727;50.236;22.452;2023-03-19T01:59:40;21.70;;;11.20;;
78430;SDS011;67727;50.236;22.452;2023-03-19T02:02:18;18.90;;;10.20;;
78430;SDS011;67727;50.236;22.452;2023-03-19T02:05:18;16.60;;;10.40;;
78430;SDS011;67727;50.236;22.452;2023-03-19T02:07:51;15.60;;;8.90;;
78430;SDS011;67727;50.236;22.452;2023-03-19T02:10:20;17.00;;;9.50;;
78430;SDS011;67727;50.236;22.452;2023-03-19T02:12:48;16.80;;;8.50;;
78430;SDS011;67727;50.236;22.452;2023-03-19T02:15:15;20.10;;;10.40;;
78430;SDS011;67727;50.236;22.452;2023-03-19T02:17:42;18.00;;;9.10;;
78430;SDS011;67727;50.236;22.452;2023-03-19T02:22:40;21.40;;;11.10;;
78430;SDS011;67727;50.236;22.452;2023-03-19T02:25:15;21.70;;;11.10;;
78430;SDS011;67727;50.236;22.452;2023-03-19T02:27:50;21.00;;;11.80;;
78430;SDS011;67727;50.236;22.452;2023-03-19T02:32:46;17.70;;;10.70;;
78430;SDS011;67727;50.236;22.452;2023-03-19T02:35:14;21.20;;;10.70;;
78430;SDS011;67727;50.236;22.452;2023-03-19T02:37:41;17.00;;;9.70;;
78430;SDS011;67727;50.236;22.452;2023-03-19T02:40:10;20.30;;;11.40;;
78430;SDS011;67727;50.236;22.452;2023-03-19T02:42:42;19.50;;;8.90;;
78430;SDS011;67727;50.236;22.452;2023-03-19T02:45:09;19.40;;;10.80;;
78430;SDS011;67727;50.236;22.452;2023-03-19T02:47:37;22.10;;;11.70;;
78430;SDS011;67727;50.236;22.452;2023-03-19T02:50:04;22.70;;;11.70;;
78430;SDS011;67727;50.236;22.452;2023-03-19T02:52:31;18.70;;;10.60;;
78430;SDS011;67727;50.236;22.452;2023-03-19T02:54:59;18.30;;;11.50;;
78430;SDS011;67727;50.236;22.452;2023-03-19T02:57:26;18.70;;;10.90;;
78430;SDS011;67727;50.236;22.452;2023-03-19T02:59:53;18.20;;;10.60;;
78430;SDS011;67727;50.236;22.452;2023-03-19T03:02:20;21.30;;;12.80;;
78430;SDS011;67727;50.236;22.452;2023-03-19T03:04:47;20.60;;;11.80;;
78430;SDS011;67727;50.236;22.452;2023-03-19T03:07:14;19.40;;;11.70;;
78430;SDS011;67727;50.236;22.452;2023-03-19T03:09:41;19.90;;;10.60;;
78430;SDS011;67727;50.236;22.452;2023-03-19T03:12:09;19.00;;;12.20;;
78430;SDS011;67727;50.236;22.452;2023-03-19T03:14:36;20.10;;;11.10;;
78430;SDS011;67727;50.236;22.452;2023-03-19T03:17:03;16.80;;;11.40;;
78430;SDS011;67727;50.236;22.452;2023-03-19T03:19:30;21.20;;;12.10;;
78430;SDS011;67727;50.236;22.452;2023-03-19T03:21:58;20.80;;;10.40;;
78430;SDS011;67727;50.236;22.452;2023-03-19T03:24:26;16.80;;;9.90;;
78430;SDS011;67727;50.236;22.452;2023-03-19T03:26:53;18.40;;;10.70;;
78430;SDS011;67727;50.236;22.452;2023-03-19T03:29:20;22.00;;;10.70;;
78430;SDS011;67727;50.236;22.452;2023-03-19T03:31:48;18.50;;;10.70;;
78430;SDS011;67727;50.236;22.452;2023-03-19T03:34:15;23.70;;;13.00;;
78430;SDS011;67727;50.236;22.452;2023-03-19T03:36:42;21.90;;;12.30;;
78430;SDS011;67727;50.236;22.452;2023-03-19T03:39:10;18.50;;;11.70;;
78430;SDS011;67727;50.236;22.452;2023-03-19T03:41:37;19.70;;;12.90;;
78430;SDS011;67727;50.236;22.452;2023-03-19T03:44:04;20.50;;;12.40;;
78430;SDS011;67727;50.236;22.452;2023-03-19T03:46:31;24.10;;;12.60;;
78430;SDS011;67727;50.236;22.452;2023-03-19T03:48:58;19.40;;;11.90;;
78430;SDS011;67727;50.236;22.452;2023-03-19T03:51:26;18.60;;;11.40;;
78430;SDS011;67727;50.236;22.452;2023-03-19T03:53:53;21.80;;;10.90;;
78430;SDS011;67727;50.236;22.452;2023-03-19T03:56:20;19.00;;;12.10;;
78430;SDS011;67727;50.236;22.452;2023-03-19T03:58:47;18.70;;;11.90;;
78430;SDS011;67727;50.236;22.452;2023-03-19T04:01:14;21.10;;;12.10;;
78430;SDS011;67727;50.236;22.452;2023-03-19T04:03:42;21.00;;;10.10;;
78430;SDS011;67727;50.236;22.452;2023-03-19T04:06:12;25.20;;;13.30;;
78430;SDS011;67727;50.236;22.452;2023-03-19T04:08:42;20.40;;;11.10;;
78430;SDS011;67727;50.236;22.452;2023-03-19T04:11:09;21.90;;;11.00;;
78430;SDS011;67727;50.236;22.452;2023-03-19T04:13:37;22.40;;;12.30;;
78430;SDS011;67727;50.236;22.452;2023-03-19T04:16:04;16.70;;;11.10;;
78430;SDS011;67727;50.236;22.452;2023-03-19T04:18:33;19.80;;;11.70;;
78430;SDS011;67727;50.236;22.452;2023-03-19T04:21:01;24.70;;;12.90;;
78430;SDS011;67727;50.236;22.452;2023-03-19T04:23:29;19.70;;;12.80;;
78430;SDS011;67727;50.236;22.452;2023-03-19T04:26:00;20.60;;;13.30;;
78430;SDS011;67727;50.236;22.452;2023-03-19T04:28:28;22.10;;;12.20;;
78430;SDS011;67727;50.236;22.452;2023-03-19T04:31:00;20.30;;;11.90;;
78430;SDS011;67727;50.236;22.452;2023-03-19T04:38:26;21.00;;;10.30;;
78430;SDS011;67727;50.236;22.452;2023-03-19T04:40:53;23.90;;;10.70;;
78430;SDS011;67727;50.236;22.452;2023-03-19T04:43:22;20.00;;;10.90;;
78430;SDS011;67727;50.236;22.452;2023-03-19T04:45:49;21.90;;;11.50;;
78430;SDS011;67727;50.236;22.452;2023-03-19T04:48:17;20.20;;;11.00;;
78430;SDS011;67727;50.236;22.452;2023-03-19T04:50:44;23.90;;;11.80;;
78430;SDS011;67727;50.236;22.452;2023-03-19T04:53:12;23.60;;;12.40;;
78430;SDS011;67727;50.236;22.452;2023-03-19T04:55:39;22.20;;;11.60;;
78430;SDS011;67727;50.236;22.452;2023-03-19T04:58:07;22.90;;;12.10;;
78430;SDS011;67727;50.236;22.452;2023-03-19T05:00:34;25.70;;;11.90;;
78430;SDS011;67727;50.236;22.452;2023-03-19T05:03:01;22.50;;;12.00;;
78430;SDS011;67727;50.236;22.452;2023-03-19T05:05:29;19.60;;;11.90;;
78430;SDS011;67727;50.236;22.452;2023-03-19T05:07:56;24.30;;;12.80;;
78430;SDS011;67727;50.236;22.452;2023-03-19T05:10:23;21.90;;;13.00;;
78430;SDS011;67727;50.236;22.452;2023-03-19T05:12:50;22.10;;;12.50;;
78430;SDS011;67727;50.236;22.452;2023-03-19T05:15:17;21.70;;;11.40;;
78430;SDS011;67727;50.236;22.452;2023-03-19T05:17:44;23.00;;;12.20;;
78430;SDS011;67727;50.236;22.452;2023-03-19T05:20:11;22.10;;;12.00;;
78430;SDS011;67727;50.236;22.452;2023-03-19T05:22:39;21.50;;;12.30;;
78430;SDS011;67727;50.236;22.452;2023-03-19T05:25:07;23.50;;;12.10;;
78430;SDS011;67727;50.236;22.452;2023-03-19T05:27:34;25.30;;;11.80;;
78430;SDS011;67727;50.236;22.452;2023-03-19T05:30:02;21.60;;;12.20;;
78430;SDS011;67727;50.236;22.452;2023-03-19T05:32:30;20.30;;;11.70;;
78430;SDS011;67727;50.236;22.452;2023-03-19T05:34:57;25.30;;;12.20;;
78430;SDS011;67727;50.236;22.452;2023-03-19T05:37:25;22.80;;;13.60;;
78430;SDS011;67727;50.236;22.452;2023-03-19T05:39:52;23.40;;;12.70;;
78430;SDS011;67727;50.236;22.452;2023-03-19T05:42:19;23.10;;;13.60;;
78430;SDS011;67727;50.236;22.452;2023-03-19T05:44:46;27.50;;;14.50;;
78430;SDS011;67727;50.236;22.452;2023-03-19T05:47:14;21.20;;;12.20;;
78430;SDS011;67727;50.236;22.452;2023-03-19T05:49:41;24.00;;;13.10;;
78430;SDS011;67727;50.236;22.452;2023-03-19T05:52:08;24.70;;;14.60;;
78430;SDS011;67727;50.236;22.452;2023-03-19T05:54:35;23.80;;;13.00;;
78430;SDS011;67727;50.236;22.452;2023-03-19T05:57:02;25.80;;;13.70;;
78430;SDS011;67727;50.236;22.452;2023-03-19T05:59:30;21.40;;;12.70;;
78430;SDS011;67727;50.236;22.452;2023-03-19T06:01:57;22.90;;;12.90;;
78430;SDS011;67727;50.236;22.452;2023-03-19T06:04:25;22.00;;;11.30;;
78430;SDS011;67727;50.236;22.452;2023-03-19T06:06:52;19.50;;;12.60;;
78430;SDS011;67727;50.236;22.452;2023-03-19T06:09:19;23.40;;;12.80;;
78430;SDS011;67727;50.236;22.452;2023-03-19T06:11:46;24.00;;;13.00;;
78430;SDS011;67727;50.236;22.452;2023-03-19T06:14:13;21.00;;;13.40;;
78430;SDS011;67727;50.236;22.452;2023-03-19T06:16:41;22.30;;;14.20;;
78430;SDS011;67727;50.236;22.452;2023-03-19T06:19:08;28.70;;;15.80;;
78430;SDS011;67727;50.236;22.452;2023-03-19T06:21:35;23.10;;;13.40;;
78430;SDS011;67727;50.236;22.452;2023-03-19T06:24:02;26.60;;;14.30;;
78430;SDS011;67727;50.236;22.452;2023-03-19T06:26:30;20.70;;;13.10;;
78430;SDS011;67727;50.236;22.452;2023-03-19T06:28:57;26.50;;;13.90;;
78430;SDS011;67727;50.236;22.452;2023-03-19T06:31:24;26.50;;;15.50;;
78430;SDS011;67727;50.236;22.452;2023-03-19T06:33:51;28.70;;;15.70;;
78430;SDS011;67727;50.236;22.452;2023-03-19T06:36:18;28.30;;;15.90;;
78430;SDS011;67727;50.236;22.452;2023-03-19T06:38:45;24.80;;;13.90;;
78430;SDS011;67727;50.236;22.452;2023-03-19T06:41:12;26.70;;;15.80;;
78430;SDS011;67727;50.236;22.452;2023-03-19T06:43:39;25.20;;;15.10;;
78430;SDS011;67727;50.236;22.452;2023-03-19T06:46:07;25.30;;;14.30;;
78430;SDS011;67727;50.236;22.452;2023-03-19T06:48:36;24.90;;;14.70;;
78430;SDS011;67727;50.236;22.452;2023-03-19T06:51:04;33.00;;;15.70;;
78430;SDS011;67727;50.236;22.452;2023-03-19T06:53:32;25.10;;;15.70;;
78430;SDS011;67727;50.236;22.452;2023-03-19T06:55:59;27.70;;;15.00;;
78430;SDS011;67727;50.236;22.452;2023-03-19T06:58:26;25.50;;;14.90;;
78430;SDS011;67727;50.236;22.452;2023-03-19T07:00:54;22.50;;;11.60;;
78430;SDS011;67727;50.236;22.452;2023-03-19T07:03:21;20.30;;;13.20;;
78430;SDS011;67727;50.236;22.452;2023-03-19T07:05:51;24.30;;;13.20;;
78430;SDS011;67727;50.236;22.452;2023-03-19T07:08:19;24.50;;;14.10;;
78430;SDS011;67727;50.236;22.452;2023-03-19T07:10:46;25.80;;;15.00;;
78430;SDS011;67727;50.236;22.452;2023-03-19T07:13:13;28.40;;;16.60;;
78430;SDS011;67727;50.236;22.452;2023-03-19T07:15:40;23.90;;;13.60;;
78430;SDS011;67727;50.236;22.452;2023-03-19T07:18:07;23.70;;;13.80;;
78430;SDS011;67727;50.236;22.452;2023-03-19T07:20:35;24.30;;;13.80;;
78430;SDS011;67727;50.236;22.452;2023-03-19T07:23:02;27.20;;;14.00;;
78430;SDS011;67727;50.236;22.452;2023-03-19T07:25:29;27.30;;;16.30;;
78430;SDS011;67727;50.236;22.452;2023-03-19T07:27:56;23.20;;;13.90;;
78430;SDS011;67727;50.236;22.452;2023-03-19T07:30:23;34.00;;;15.60;;
78430;SDS011;67727;50.236;22.452;2023-03-19T07:32:50;28.40;;;15.60;;
78430;SDS011;67727;50.236;22.452;2023-03-19T07:35:17;25.10;;;15.60;;
78430;SDS011;67727;50.236;22.452;2023-03-19T07:37:44;21.90;;;14.20;;
78430;SDS011;67727;50.236;22.452;2023-03-19T07:40:11;25.20;;;15.80;;
78430;SDS011;67727;50.236;22.452;2023-03-19T07:45:06;22.80;;;14.50;;
78430;SDS011;67727;50.236;22.452;2023-03-19T07:47:33;22.30;;;14.00;;
78430;SDS011;67727;50.236;22.452;2023-03-19T07:50:01;27.30;;;14.20;;
78430;SDS011;67727;50.236;22.452;2023-03-19T07:52:28;26.60;;;15.70;;
78430;SDS011;67727;50.236;22.452;2023-03-19T07:54:55;27.00;;;15.40;;
78430;SDS011;67727;50.236;22.452;2023-03-19T07:57:22;26.50;;;14.10;;
78430;SDS011;67727;50.236;22.452;2023-03-19T07:59:51;21.20;;;12.20;;
78430;SDS011;67727;50.236;22.452;2023-03-19T08:02:18;21.50;;;12.50;;
78430;SDS011;67727;50.236;22.452;2023-03-19T08:04:45;25.90;;;14.40;;
78430;SDS011;67727;50.236;22.452;2023-03-19T08:07:12;20.20;;;12.20;;
78430;SDS011;67727;50.236;22.452;2023-03-19T08:09:39;21.70;;;11.60;;
78430;SDS011;67727;50.236;22.452;2023-03-19T08:12:07;18.30;;;10.50;;
78430;SDS011;67727;50.236;22.452;2023-03-19T08:14:34;22.50;;;11.80;;
78430;SDS011;67727;50.236;22.452;2023-03-19T08:17:01;20.40;;;12.00;;
78430;SDS011;67727;50.236;22.452;2023-03-19T08:19:29;22.20;;;13.90;;
78430;SDS011;67727;50.236;22.452;2023-03-19T08:21:56;20.50;;;12.30;;
78430;SDS011;67727;50.236;22.452;2023-03-19T08:24:23;20.90;;;14.30;;
78430;SDS011;67727;50.236;22.452;2023-03-19T08:26:50;20.40;;;11.40;;
78430;SDS011;67727;50.236;22.452;2023-03-19T08:29:17;18.50;;;11.30;;
78430;SDS011;67727;50.236;22.452;2023-03-19T08:31:44;27.90;;;16.90;;
78430;SDS011;67727;50.236;22.452;2023-03-19T08:34:12;19.20;;;11.50;;
78430;SDS011;67727;50.236;22.452;2023-03-19T08:36:39;14.20;;;9.20;;
78430;SDS011;67727;50.236;22.452;2023-03-19T08:39:06;16.00;;;9.60;;
78430;SDS011;67727;50.236;22.452;2023-03-19T08:41:33;14.40;;;9.10;;
78430;SDS011;67727;50.236;22.452;2023-03-19T08:46:27;14.60;;;7.00;;
78430;SDS011;67727;50.236;22.452;2023-03-19T08:48:55;12.20;;;7.60;;
78430;SDS011;67727;50.236;22.452;2023-03-19T08:51:22;11.90;;;7.90;;
78430;SDS011;67727;50.236;22.452;2023-03-19T08:53:51;11.70;;;7.80;;
78430;SDS011;67727;50.236;22.452;2023-03-19T08:56:18;11.60;;;7.00;;
78430;SDS011;67727;50.236;22.452;2023-03-19T08:58:46;18.50;;;10.40;;
78430;SDS011;67727;50.236;22.452;2023-03-19T09:03:41;15.50;;;9.30;;
78430;SDS011;67727;50.236;22.452;2023-03-19T09:06:11;15.90;;;9.50;;
78430;SDS011;67727;50.236;22.452;2023-03-19T09:08:40;11.70;;;7.50;;
78430;SDS011;67727;50.236;22.452;2023-03-19T09:11:08;13.80;;;7.90;;
78430;SDS011;67727;50.236;22.452;2023-03-19T09:13:36;14.30;;;8.70;;
78430;SDS011;67727;50.236;22.452;2023-03-19T09:16:03;14.90;;;8.10;;
78430;SDS011;67727;50.236;22.452;2023-03-19T09:18:31;14.30;;;8.30;;
78430;SDS011;67727;50.236;22.452;2023-03-19T09:20:59;13.20;;;8.20;;
78430;SDS011;67727;50.236;22.452;2023-03-19T09:23:27;12.30;;;8.20;;
78430;SDS011;67727;50.236;22.452;2023-03-19T09:25:54;11.30;;;8.10;;
78430;SDS011;67727;50.236;22.452;2023-03-19T09:28:21;13.20;;;8.40;;
78430;SDS011;67727;50.236;22.452;2023-03-19T09:30:49;10.60;;;6.30;;
78430;SDS011;67727;50.236;22.452;2023-03-19T09:33:18;9.70;;;6.30;;
78430;SDS011;67727;50.236;22.452;2023-03-19T09:35:50;8.70;;;6.30;;
78430;SDS011;67727;50.236;22.452;2023-03-19T09:38:19;10.50;;;6.40;;
78430;SDS011;67727;50.236;22.452;2023-03-19T09:43:58;7.80;;;5.30;;
78430;SDS011;67727;50.236;22.452;2023-03-19T09:49:20;9.70;;;6.00;;
78430;SDS011;67727;50.236;22.452;2023-03-19T09:51:52;9.10;;;5.90;;
78430;SDS011;67727;50.236;22.452;2023-03-19T09:57:06;24.20;;;12.20;;
78430;SDS011;67727;50.236;22.452;2023-03-19T09:59:35;12.50;;;6.80;;
78430;SDS011;67727;50.236;22.452;2023-03-19T10:13:16;6.90;;;4.80;;
78430;SDS011;67727;50.236;22.452;2023-03-19T10:15:49;7.40;;;5.20;;
78430;SDS011;67727;50.236;22.452;2023-03-19T10:26:20;6.10;;;4.60;;
78430;SDS011;67727;50.236;22.452;2023-03-19T10:29:36;6.80;;;5.20;;
78430;SDS011;67727;50.236;22.452;2023-03-19T10:31:52;6.70;;;4.00;;
78430;SDS011;67727;50.236;22.452;2023-03-19T10:34:31;6.40;;;4.60;;
78430;SDS011;67727;50.236;22.452;2023-03-19T10:37:22;6.00;;;4.40;;
78430;SDS011;67727;50.236;22.452;2023-03-19T10:39:57;6.80;;;4.10;;
78430;SDS011;67727;50.236;22.452;2023-03-19T10:47:52;6.50;;;4.10;;
78430;SDS011;67727;50.236;22.452;2023-03-19T10:51:04;6.90;;;3.80;;
78430;SDS011;67727;50.236;22.452;2023-03-19T10:55:54;5.80;;;4.20;;
78430;SDS011;67727;50.236;22.452;2023-03-19T10:58:26;6.70;;;3.80;;
78430;SDS011;67727;50.236;22.452;2023-03-19T11:00:56;7.20;;;3.90;;
78430;SDS011;67727;50.236;22.452;2023-03-19T11:03:26;5.80;;;3.90;;
78430;SDS011;67727;50.236;22.452;2023-03-19T11:08:55;6.00;;;3.90;;
78430;SDS011;67727;50.236;22.452;2023-03-19T11:11:45;6.00;;;4.20;;
78430;SDS011;67727;50.236;22.452;2023-03-19T11:16:54;5.60;;;3.50;;
78430;SDS011;67727;50.236;22.452;2023-03-19T11:19:25;5.50;;;3.80;;
78430;SDS011;67727;50.236;22.452;2023-03-19T11:21:59;5.70;;;3.90;;
78430;SDS011;67727;50.236;22.452;2023-03-19T11:24:32;7.40;;;4.30;;
78430;SDS011;67727;50.236;22.452;2023-03-19T11:27:01;9.40;;;6.40;;
78430;SDS011;67727;50.236;22.452;2023-03-19T11:29:29;13.20;;;8.50;;
78430;SDS011;67727;50.236;22.452;2023-03-19T11:32:00;7.70;;;5.20;;
78430;SDS011;67727;50.236;22.452;2023-03-19T11:34:55;8.30;;;3.90;;
78430;SDS011;67727;50.236;22.452;2023-03-19T11:37:53;5.40;;;3.70;;
78430;SDS011;67727;50.236;22.452;2023-03-19T11:42:56;5.20;;;3.80;;
78430;SDS011;67727;50.236;22.452;2023-03-19T11:51:18;5.60;;;4.00;;
78430;SDS011;67727;50.236;22.452;2023-03-19T11:56:43;6.60;;;4.20;;
78430;SDS011;67727;50.236;22.452;2023-03-19T12:15:51;8.00;;;4.60;;
78430;SDS011;67727;50.236;22.452;2023-03-19T12:24:37;6.30;;;3.50;;
78430;SDS011;67727;50.236;22.452;2023-03-19T12:29:46;4.00;;;3.10;;
78430;SDS011;67727;50.236;22.452;2023-03-19T12:35:06;5.40;;;3.00;;
78430;SDS011;67727;50.236;22.452;2023-03-19T12:37:39;5.50;;;3.90;;
78430;SDS011;67727;50.236;22.452;2023-03-19T12:42:56;4.90;;;3.60;;
78430;SDS011;67727;50.236;22.452;2023-03-19T12:45:27;5.30;;;3.50;;
78430;SDS011;67727;50.236;22.452;2023-03-19T12:48:01;6.90;;;3.80;;
78430;SDS011;67727;50.236;22.452;2023-03-19T12:50:35;6.60;;;3.70;;
78430;SDS011;67727;50.236;22.452;2023-03-19T12:53:07;5.60;;;3.50;;
78430;SDS011;67727;50.236;22.452;2023-03-19T12:55:42;6.00;;;3.70;;
78430;SDS011;67727;50.236;22.452;2023-03-19T12:58:58;4.40;;;3.10;;
78430;SDS011;67727;50.236;22.452;2023-03-19T13:01:26;6.80;;;3.80;;
78430;SDS011;67727;50.236;22.452;2023-03-19T13:04:02;5.00;;;3.40;;
78430;SDS011;67727;50.236;22.452;2023-03-19T13:06:36;5.60;;;3.30;;
78430;SDS011;67727;50.236;22.452;2023-03-19T13:12:16;4.00;;;3.60;;
78430;SDS011;67727;50.236;22.452;2023-03-19T13:15:04;5.50;;;3.40;;
78430;SDS011;67727;50.236;22.452;2023-03-19T13:22:59;5.80;;;3.20;;
78430;SDS011;67727;50.236;22.452;2023-03-19T13:25:32;4.70;;;3.40;;
78430;SDS011;67727;50.236;22.452;2023-03-19T13:28:10;4.20;;;3.10;;
78430;SDS011;67727;50.236;22.452;2023-03-19T13:30:57;4.70;;;3.20;;
78430;SDS011;67727;50.236;22.452;2023-03-19T13:33:26;5.50;;;3.40;;
78430;SDS011;67727;50.236;22.452;2023-03-19T13:35:54;5.10;;;3.30;;
78430;SDS011;67727;50.236;22.452;2023-03-19T13:44:00;5.20;;;2.90;;
78430;SDS011;67727;50.236;22.452;2023-03-19T13:58:20;4.40;;;3.10;;
78430;SDS011;67727;50.236;22.452;2023-03-19T14:01:17;5.30;;;3.10;;
78430;SDS011;67727;50.236;22.452;2023-03-19T14:14:50;4.60;;;3.10;;
78430;SDS011;67727;50.236;22.452;2023-03-19T14:17:30;5.60;;;3.50;;
78430;SDS011;67727;50.236;22.452;2023-03-19T14:20:43;5.30;;;3.40;;
78430;SDS011;67727;50.236;22.452;2023-03-19T14:23:02;7.70;;;4.00;;
78430;SDS011;67727;50.236;22.452;2023-03-19T14:25:53;6.60;;;4.50;;
78430;SDS011;67727;50.236;22.452;2023-03-19T14:36:58;5.50;;;3.50;;
78430;SDS011;67727;50.236;22.452;2023-03-19T14:39:29;6.80;;;3.70;;
78430;SDS011;67727;50.236;22.452;2023-03-19T14:42:33;7.30;;;4.70;;
78430;SDS011;67727;50.236;22.452;2023-03-19T14:55:17;8.80;;;4.80;;
78430;SDS011;67727;50.236;22.452;2023-03-19T14:57:44;5.20;;;3.40;;
78430;SDS011;67727;50.236;22.452;2023-03-19T15:00:15;9.50;;;4.90;;
78430;SDS011;67727;50.236;22.452;2023-03-19T15:02:48;7.30;;;3.90;;
78430;SDS011;67727;50.236;22.452;2023-03-19T15:07:56;10.50;;;4.60;;
78430;SDS011;67727;50.236;22.452;2023-03-19T15:10:27;7.00;;;4.20;;
78430;SDS011;67727;50.236;22.452;2023-03-19T15:18:31;7.40;;;4.30;;
78430;SDS011;67727;50.236;22.452;2023-03-19T15:21:00;7.90;;;4.40;;
78430;SDS011;67727;50.236;22.452;2023-03-19T15:23:28;6.10;;;3.90;;
78430;SDS011;67727;50.236;22.452;2023-03-19T15:25:57;5.70;;;4.40;;
78430;SDS011;67727;50.236;22.452;2023-03-19T15:28:31;7.80;;;4.70;;
78430;SDS011;67727;50.236;22.452;2023-03-19T15:31:00;7.20;;;4.20;;
78430;SDS011;67727;50.236;22.452;2023-03-19T15:33:31;8.50;;;4.50;;
78430;SDS011;67727;50.236;22.452;2023-03-19T15:36:02;9.30;;;5.40;;
78430;SDS011;67727;50.236;22.452;2023-03-19T15:41:04;6.60;;;3.70;;
78430;SDS011;67727;50.236;22.452;2023-03-19T15:43:34;10.10;;;4.40;;
78430;SDS011;67727;50.236;22.452;2023-03-19T15:46:05;15.30;;;7.10;;
78430;SDS011;67727;50.236;22.452;2023-03-19T15:48:48;15.30;;;7.70;;
78430;SDS011;67727;50.236;22.452;2023-03-19T15:51:20;16.70;;;9.70;;
78430;SDS011;67727;50.236;22.452;2023-03-19T15:53:49;16.60;;;10.40;;
78430;SDS011;67727;50.236;22.452;2023-03-19T15:56:17;31.00;;;13.10;;
78430;SDS011;67727;50.236;22.452;2023-03-19T15:58:47;30.60;;;11.20;;
78430;SDS011;67727;50.236;22.452;2023-03-19T16:01:16;33.30;;;12.80;;
78430;SDS011;67727;50.236;22.452;2023-03-19T16:03:48;127.80;;;42.50;;
78430;SDS011;67727;50.236;22.452;2023-03-19T16:06:38;272.70;;;86.70;;
78430;SDS011;67727;50.236;22.452;2023-03-19T16:11:45;211.00;;;72.60;;
78430;SDS011;67727;50.236;22.452;2023-03-19T16:14:25;183.60;;;60.30;;
78430;SDS011;67727;50.236;22.452;2023-03-19T16:17:15;57.90;;;18.70;;
78430;SDS011;67727;50.236;22.452;2023-03-19T16:22:16;27.50;;;11.50;;
78430;SDS011;67727;50.236;22.452;2023-03-19T16:24:47;19.10;;;9.10;;
78430;SDS011;67727;50.236;22.452;2023-03-19T16:27:17;28.40;;;11.50;;
78430;SDS011;67727;50.236;22.452;2023-03-19T16:29:55;45.00;;;15.30;;
78430;SDS011;67727;50.236;22.452;2023-03-19T16:32:27;56.40;;;21.30;;
78430;SDS011;67727;50.236;22.452;2023-03-19T16:35:05;36.30;;;14.40;;
78430;SDS011;67727;50.236;22.452;2023-03-19T16:37:40;45.10;;;16.00;;
78430;SDS011;67727;50.236;22.452;2023-03-19T16:45:24;46.60;;;19.50;;
78430;SDS011;67727;50.236;22.452;2023-03-19T16:47:56;46.70;;;21.70;;
78430;SDS011;67727;50.236;22.452;2023-03-19T16:50:31;55.50;;;22.20;;
78430;SDS011;67727;50.236;22.452;2023-03-19T16:53:02;64.90;;;26.10;;
78430;SDS011;67727;50.236;22.452;2023-03-19T16:55:33;55.60;;;26.40;;
78430;SDS011;67727;50.236;22.452;2023-03-19T17:00:30;53.90;;;25.50;;
78430;SDS011;67727;50.236;22.452;2023-03-19T17:02:58;54.10;;;24.00;;
78430;SDS011;67727;50.236;22.452;2023-03-19T17:05:26;100.00;;;40.20;;
78430;SDS011;67727;50.236;22.452;2023-03-19T17:07:54;136.50;;;52.80;;
78430;SDS011;67727;50.236;22.452;2023-03-19T17:10:23;128.00;;;55.10;;
78430;SDS011;67727;50.236;22.452;2023-03-19T17:12:53;116.80;;;45.50;;
78430;SDS011;67727;50.236;22.452;2023-03-19T17:17:51;105.40;;;48.30;;
78430;SDS011;67727;50.236;22.452;2023-03-19T17:20:19;143.30;;;59.70;;
78430;SDS011;67727;50.236;22.452;2023-03-19T17:22:49;149.00;;;62.80;;
78430;SDS011;67727;50.236;22.452;2023-03-19T17:25:17;168.50;;;66.60;;
78430;SDS011;67727;50.236;22.452;2023-03-19T17:30:11;110.80;;;52.50;;
78430;SDS011;67727;50.236;22.452;2023-03-19T17:35:18;100.90;;;48.40;;
78430;SDS011;67727;50.236;22.452;2023-03-19T17:37:47;114.00;;;49.50;;
78430;SDS011;67727;50.236;22.452;2023-03-19T17:40:16;158.80;;;58.60;;
78430;SDS011;67727;50.236;22.452;2023-03-19T17:42:48;196.00;;;67.50;;